createdAt,value
2019-03-03T00:02:20.699Z,101025.19
2019-03-03T00:04:51.332Z,101029.36
2019-03-03T00:07:22.208Z,101026.70
2019-03-03T00:09:52.959Z,101035.70
2019-03-03T00:12:23.610Z,101026.95
2019-03-03T00:14:54.261Z,101031.78
2019-03-03T00:17:25.207Z,101028.48
2019-03-03T00:19:56.061Z,101041.63
2019-03-03T00:22:26.727Z,101026.50
2019-03-03T00:24:57.466Z,101039.34
2019-03-03T00:27:28.339Z,101044.34
2019-03-03T00:29:59.095Z,101047.43
2019-03-03T00:32:29.744Z,101046.84
2019-03-03T00:35:00.583Z,101042.39
2019-03-03T00:37:32.876Z,101042.83
2019-03-03T00:40:05.566Z,101044.54
2019-03-03T00:42:50.231Z,101044.33
2019-03-03T00:45:34.387Z,101043.52
2019-03-03T00:48:12.826Z,101060.52
2019-03-03T00:50:45.129Z,101050.48
2019-03-03T00:53:20.264Z,101063.67
2019-03-03T00:56:10.844Z,101072.22
2019-03-03T00:58:42.558Z,101073.91
2019-03-03T01:01:23.924Z,101083.80
2019-03-03T01:03:59.280Z,101093.48
2019-03-03T01:06:47.932Z,101094.12
2019-03-03T01:09:27.689Z,101093.64
2019-03-03T01:12:02.737Z,101100.47
2019-03-03T01:14:40.937Z,101100.03
2019-03-03T01:17:13.244Z,101088.59
2019-03-03T01:19:49.619Z,101096.15
2019-03-03T01:22:40.217Z,101096.15
2019-03-03T01:25:11.075Z,101093.05
2019-03-03T01:27:41.826Z,101085.78
2019-03-03T01:30:13.410Z,101092.56
2019-03-03T01:32:43.724Z,101090.98
2019-03-03T01:35:14.393Z,101087.09
2019-03-03T01:37:45.149Z,101094.47
2019-03-03T01:40:16.005Z,101094.90
2019-03-03T01:42:46.858Z,101094.90
2019-03-03T01:45:17.495Z,101093.35
2019-03-03T01:47:48.148Z,101090.87
2019-03-03T01:50:18.904Z,101102.07
2019-03-03T01:52:49.755Z,101111.38
2019-03-03T01:55:20.424Z,101111.52
2019-03-03T01:57:51.079Z,101113.12
2019-03-03T02:00:26.529Z,101116.66
2019-03-03T02:02:58.135Z,101116.62
2019-03-03T02:05:28.552Z,101107.93
2019-03-03T02:07:59.411Z,101113.61
2019-03-03T02:10:30.165Z,101108.58
2019-03-03T02:13:00.916Z,101106.52
2019-03-03T02:15:31.670Z,101090.43
2019-03-03T02:18:02.530Z,101098.84
2019-03-03T02:20:34.290Z,101092.11
2019-03-03T02:23:05.160Z,101090.02
2019-03-03T02:25:36.017Z,101100.67
2019-03-03T02:28:06.871Z,101088.88
2019-03-03T02:30:37.512Z,101108.10
2019-03-03T02:33:08.177Z,101111.59
2019-03-03T02:35:38.945Z,101113.53
2019-03-03T02:38:09.788Z,101109.69
2019-03-03T02:40:40.435Z,101119.37
2019-03-03T02:43:11.071Z,101124.83
2019-03-03T02:45:41.838Z,101135.89
2019-03-03T02:48:12.701Z,101134.89
2019-03-03T02:50:43.348Z,101139.59
2019-03-03T02:53:14.007Z,101151.41
2019-03-03T02:55:44.736Z,101154.92
2019-03-03T02:58:15.608Z,101146.98
2019-03-03T03:00:47.897Z,101148.89
2019-03-03T03:03:20.067Z,101156.30
2019-03-03T03:05:58.496Z,101153.19
2019-03-03T03:08:40.087Z,101162.66
2019-03-03T03:11:30.374Z,101152.19
2019-03-03T03:14:08.815Z,101146.13
2019-03-03T03:16:43.967Z,101145.19
2019-03-03T03:19:32.991Z,101150.44
2019-03-03T03:22:06.441Z,101155.67
2019-03-03T03:24:44.865Z,101156.30
2019-03-03T03:27:29.221Z,101163.86
2019-03-03T03:30:01.510Z,101162.73
2019-03-03T03:32:36.800Z,101163.34
2019-03-03T03:35:19.091Z,101164.69
2019-03-03T03:37:51.465Z,101166.03
2019-03-03T03:40:32.956Z,101166.06
2019-03-03T03:43:10.975Z,101172.26
2019-03-03T03:45:46.220Z,101173.63
2019-03-03T03:48:18.519Z,101175.17
2019-03-03T03:50:53.853Z,101181.55
2019-03-03T03:53:35.055Z,101184.83
2019-03-03T03:56:13.381Z,101192.95
2019-03-03T03:58:45.792Z,101199.73
2019-03-03T04:01:20.926Z,101197.20
2019-03-03T04:04:09.574Z,101195.09
2019-03-03T04:06:47.893Z,101195.48
2019-03-03T04:09:23.252Z,101209.59
2019-03-03T04:12:04.523Z,101209.80
2019-03-03T04:14:36.726Z,101211.34
2019-03-03T04:17:11.766Z,101218.47
2019-03-03T04:19:46.821Z,101219.45
2019-03-03T04:22:19.710Z,101219.25
2019-03-03T04:25:04.080Z,101220.61
2019-03-03T04:27:36.369Z,101226.98
2019-03-03T04:30:11.315Z,101224.66
2019-03-03T04:32:49.536Z,101221.36
2019-03-03T04:35:27.538Z,101223.84
2019-03-03T04:38:06.077Z,101214.95
2019-03-03T04:40:38.346Z,101216.73
2019-03-03T04:43:10.655Z,101214.03
2019-03-03T04:45:51.943Z,101215.39
2019-03-03T04:48:24.333Z,101222.95
2019-03-03T04:51:14.930Z,101222.95
2019-03-03T04:53:50.387Z,101234.35
2019-03-03T04:56:29.017Z,101251.20
2019-03-03T04:59:16.842Z,101254.48
2019-03-03T05:01:52.290Z,101258.16
2019-03-03T05:04:24.595Z,101258.16
2019-03-03T05:06:56.764Z,101261.08
2019-03-03T05:09:29.170Z,101263.39
2019-03-03T05:12:16.376Z,101282.36
2019-03-03T05:14:47.252Z,101281.78
2019-03-03T05:17:35.576Z,101281.78
2019-03-03T05:20:11.666Z,101289.91
2019-03-03T05:22:43.439Z,101291.25
2019-03-03T05:25:14.390Z,101287.38
2019-03-03T05:27:45.033Z,101283.31
2019-03-03T05:30:15.910Z,101281.55
2019-03-03T05:32:46.801Z,101283.45
2019-03-03T05:35:17.516Z,101287.30
2019-03-03T05:37:48.152Z,101284.58
2019-03-03T05:40:18.819Z,101282.99
2019-03-03T05:42:49.673Z,101274.97
2019-03-03T05:45:20.428Z,101282.17
2019-03-03T05:47:51.184Z,101273.17
2019-03-03T05:50:21.835Z,101273.83
2019-03-03T05:52:52.569Z,101270.02
2019-03-03T05:55:23.445Z,101268.08
2019-03-03T05:57:54.197Z,101269.25
2019-03-03T06:00:24.831Z,101269.25
2019-03-03T06:02:55.706Z,101268.45
2019-03-03T06:05:26.558Z,101267.59
2019-03-03T06:07:57.298Z,101271.89
2019-03-03T06:10:27.947Z,101267.77
2019-03-03T06:12:58.821Z,101262.08
2019-03-03T06:15:29.574Z,101273.22
2019-03-03T06:18:00.209Z,101274.08
2019-03-03T06:20:30.862Z,101269.67
2019-03-03T06:23:01.838Z,101268.80
2019-03-03T06:25:32.691Z,101277.69
2019-03-03T06:28:03.342Z,101273.61
2019-03-03T06:30:33.405Z,101266.70
2019-03-03T06:33:03.914Z,101271.72
2019-03-03T06:35:34.566Z,101273.19
2019-03-03T06:38:05.448Z,101279.78
2019-03-03T06:40:36.278Z,101271.67
2019-03-03T06:43:06.928Z,101275.80
2019-03-03T06:45:37.596Z,101279.97
2019-03-03T06:48:08.456Z,101278.59
2019-03-03T06:50:39.206Z,101277.07
2019-03-03T06:53:09.959Z,101276.83
2019-03-03T06:55:40.595Z,101285.78
2019-03-03T06:58:11.469Z,101282.42
2019-03-03T07:00:42.221Z,101292.01
2019-03-03T07:03:12.977Z,101284.05
2019-03-03T07:05:43.833Z,101296.81
2019-03-03T07:08:14.688Z,101294.12
2019-03-03T07:10:45.441Z,101292.66
2019-03-03T07:13:16.093Z,101280.11
2019-03-03T07:16:05.842Z,101282.28
2019-03-03T07:18:38.771Z,101280.15
2019-03-03T07:21:09.525Z,101274.53
2019-03-03T07:23:41.200Z,101280.88
2019-03-03T07:26:12.161Z,101279.34
2019-03-03T07:28:42.809Z,101283.27
2019-03-03T07:31:13.673Z,101281.91
2019-03-03T07:33:45.133Z,101290.19
2019-03-03T07:36:15.667Z,101287.56
2019-03-03T07:38:45.533Z,101280.38
2019-03-03T07:41:15.967Z,101281.56
2019-03-03T07:43:46.803Z,101281.45
2019-03-03T07:46:17.561Z,101293.16
2019-03-03T07:48:48.413Z,101276.39
2019-03-03T07:51:19.083Z,101284.94
2019-03-03T07:53:49.940Z,101274.66
2019-03-03T07:56:20.792Z,101280.73
2019-03-03T07:58:51.549Z,101280.84
2019-03-03T08:01:22.407Z,101284.19
2019-03-03T08:03:53.256Z,101285.53
2019-03-03T08:06:23.117Z,101278.05
2019-03-03T08:08:53.639Z,101279.70
2019-03-03T08:11:24.477Z,101280.09
2019-03-03T08:13:55.249Z,101289.78
2019-03-03T08:16:25.987Z,101296.95
2019-03-03T08:18:56.860Z,101298.25
2019-03-03T08:21:27.715Z,101296.68
2019-03-03T08:23:58.462Z,101293.06
2019-03-03T08:26:28.777Z,101285.13
2019-03-03T08:28:59.159Z,101293.06
2019-03-03T08:31:29.222Z,101293.19
2019-03-03T08:33:59.717Z,101299.89
2019-03-03T08:36:30.705Z,101293.61
2019-03-03T08:39:01.665Z,101299.39
2019-03-03T08:41:33.832Z,101298.42
2019-03-03T08:44:06.243Z,101299.07
2019-03-03T08:46:40.475Z,101301.12
2019-03-03T08:49:15.770Z,101302.07
2019-03-03T08:51:50.964Z,101299.61
2019-03-03T08:54:26.113Z,101300.79
2019-03-03T08:57:10.774Z,101292.39
2019-03-03T08:59:58.013Z,101295.39
2019-03-03T09:02:39.198Z,101290.71
2019-03-03T09:05:15.078Z,101294.23
2019-03-03T09:07:56.805Z,101289.94
2019-03-03T09:10:28.950Z,101296.09
2019-03-03T09:13:04.101Z,101292.83
2019-03-03T09:15:45.379Z,101299.53
2019-03-03T09:18:34.899Z,101290.44
2019-03-03T09:21:19.369Z,101291.56
2019-03-03T09:24:08.071Z,101286.82
2019-03-03T09:26:58.054Z,101281.98
2019-03-03T09:29:31.133Z,101288.00
2019-03-03T09:32:14.272Z,101286.64
2019-03-03T09:34:49.646Z,101280.52
2019-03-03T09:37:27.847Z,101292.61
2019-03-03T09:40:15.974Z,101289.39
2019-03-03T09:42:57.497Z,101292.55
2019-03-03T09:45:46.455Z,101291.67
2019-03-03T09:48:30.913Z,101283.48
2019-03-03T09:51:08.929Z,101285.27
2019-03-03T09:53:53.494Z,101280.44
2019-03-03T09:56:25.679Z,101284.02
2019-03-03T09:59:10.152Z,101281.44
2019-03-03T10:01:42.509Z,101277.77
2019-03-03T10:04:14.807Z,101278.19
2019-03-03T10:06:50.271Z,101272.52
2019-03-03T10:09:39.129Z,101270.48
2019-03-03T10:12:17.960Z,101279.04
2019-03-03T10:14:56.498Z,101255.45
2019-03-03T10:17:40.955Z,101261.14
2019-03-03T10:20:29.208Z,101254.30
2019-03-03T10:23:10.389Z,101262.56
2019-03-03T10:25:43.444Z,101257.30
2019-03-03T10:28:32.246Z,101255.66
2019-03-03T10:31:10.336Z,101247.24
2019-03-03T10:33:42.625Z,101244.69
2019-03-03T10:36:15.033Z,101244.72
2019-03-03T10:38:50.598Z,101234.85
2019-03-03T10:41:39.125Z,101232.62
2019-03-03T10:44:11.544Z,101228.64
2019-03-03T10:47:00.014Z,101236.48
2019-03-03T10:49:47.836Z,101236.20
2019-03-03T10:52:26.770Z,101226.87
2019-03-03T10:55:03.540Z,101224.89
2019-03-03T10:57:35.727Z,101230.90
2019-03-03T11:00:14.163Z,101234.61
2019-03-03T11:02:52.574Z,101232.59
2019-03-03T11:05:25.065Z,101234.08
2019-03-03T11:08:06.340Z,101230.68
2019-03-03T11:10:57.331Z,101226.09
2019-03-03T11:13:39.464Z,101225.49
2019-03-03T11:16:17.479Z,101219.94
2019-03-03T11:19:06.020Z,101210.45
2019-03-03T11:21:53.338Z,101201.49
2019-03-03T11:24:25.752Z,101205.00
2019-03-03T11:26:57.935Z,101201.92
2019-03-03T11:29:31.340Z,101196.41
2019-03-03T11:32:06.276Z,101191.50
2019-03-03T11:34:54.639Z,101181.35
2019-03-03T11:37:32.939Z,101188.55
2019-03-03T11:40:05.636Z,101192.44
2019-03-03T11:42:47.556Z,101191.25
2019-03-03T11:45:22.809Z,101186.79
2019-03-03T11:48:06.843Z,101183.72
2019-03-03T11:50:48.297Z,101183.23
2019-03-03T11:53:29.731Z,101180.59
2019-03-03T11:56:02.121Z,101182.16
2019-03-03T11:58:40.540Z,101174.52
2019-03-03T12:01:12.556Z,101170.56
2019-03-03T12:03:45.017Z,101178.83
2019-03-03T12:06:26.216Z,101173.83
2019-03-03T12:09:13.626Z,101167.72
2019-03-03T12:11:49.289Z,101170.73
2019-03-03T12:14:34.971Z,101179.03
2019-03-03T12:17:08.914Z,101157.88
2019-03-03T12:19:44.074Z,101162.58
2019-03-03T12:22:19.116Z,101170.58
2019-03-03T12:24:51.301Z,101159.94
2019-03-03T12:27:26.437Z,101161.12
2019-03-03T12:30:03.139Z,101159.92
2019-03-03T12:32:35.428Z,101165.58
2019-03-03T12:35:09.410Z,101138.82
2019-03-03T12:37:41.315Z,101157.49
2019-03-03T12:40:19.864Z,101154.91
2019-03-03T12:43:08.511Z,101153.34
2019-03-03T12:45:49.472Z,101142.36
2019-03-03T12:48:36.915Z,101138.27
2019-03-03T12:51:17.799Z,101139.97
2019-03-03T12:53:55.711Z,101148.92
2019-03-03T12:56:44.054Z,101137.80
2019-03-03T12:59:31.257Z,101135.39
2019-03-03T13:02:20.013Z,101129.09
2019-03-03T13:04:52.196Z,101122.60
2019-03-03T13:07:24.504Z,101120.93
2019-03-03T13:10:02.621Z,101116.88
2019-03-03T13:12:40.635Z,101114.67
2019-03-03T13:15:15.566Z,101118.12
2019-03-03T13:17:50.718Z,101107.70
2019-03-03T13:20:23.130Z,101108.59
2019-03-03T13:23:03.902Z,101110.13
2019-03-03T13:25:39.039Z,101105.95
2019-03-03T13:28:14.105Z,101104.61
2019-03-03T13:30:58.664Z,101101.86
2019-03-03T13:33:33.919Z,101095.58
2019-03-03T13:36:08.644Z,101095.00
2019-03-03T13:38:47.173Z,101100.94
2019-03-03T13:41:19.578Z,101094.78
2019-03-03T13:43:50.314Z,101098.23
2019-03-03T13:46:21.086Z,101100.47
2019-03-03T13:48:51.925Z,101104.27
2019-03-03T13:51:22.677Z,101108.95
2019-03-03T13:53:53.451Z,101112.33
2019-03-03T13:56:24.102Z,101112.77
2019-03-03T13:58:54.960Z,101096.59
2019-03-03T14:01:26.106Z,101091.20
2019-03-03T14:03:56.569Z,101098.27
2019-03-03T14:06:27.222Z,101098.66
2019-03-03T14:08:57.975Z,101096.23
2019-03-03T14:11:28.931Z,101108.17
2019-03-03T14:13:59.361Z,101107.64
2019-03-03T14:16:30.031Z,101092.06
2019-03-03T14:19:00.790Z,101095.22
2019-03-03T14:21:31.640Z,101088.20
2019-03-03T14:24:01.966Z,101085.55
2019-03-03T14:26:32.682Z,101077.13
2019-03-03T14:29:02.700Z,101085.88
2019-03-03T14:31:34.166Z,101082.66
2019-03-03T14:34:04.900Z,101084.23
2019-03-03T14:36:35.653Z,101082.44
2019-03-03T14:39:06.715Z,101082.59
2019-03-03T14:41:37.636Z,101081.91
2019-03-03T14:44:08.937Z,101086.78
2019-03-03T14:46:39.784Z,101075.19
2019-03-03T14:49:10.549Z,101068.72
2019-03-03T14:51:41.298Z,101075.81
2019-03-03T14:54:12.157Z,101078.61
2019-03-03T14:56:43.011Z,101083.16
2019-03-03T14:59:13.771Z,101071.09
2019-03-03T15:01:44.404Z,101072.94
2019-03-03T15:04:15.259Z,101074.42
2019-03-03T15:06:46.129Z,101076.30
2019-03-03T15:09:23.308Z,101067.03
2019-03-03T15:11:54.183Z,101065.48
2019-03-03T15:14:24.825Z,101068.64
2019-03-03T15:16:55.628Z,101076.02
2019-03-03T15:19:26.118Z,101074.72
2019-03-03T15:21:56.199Z,101061.84
2019-03-03T15:24:26.723Z,101062.01
2019-03-03T15:26:57.459Z,101066.75
2019-03-03T15:29:28.335Z,101059.14
2019-03-03T15:32:00.217Z,101055.22
2019-03-03T15:34:31.072Z,101056.09
2019-03-03T15:37:02.029Z,101062.68
2019-03-03T15:39:32.560Z,101058.41
2019-03-03T15:42:03.418Z,101073.78
2019-03-03T15:44:34.086Z,101065.48
2019-03-03T15:47:04.853Z,101069.84
2019-03-03T15:49:54.991Z,101060.97
2019-03-03T15:52:52.299Z,101062.41
2019-03-03T15:55:33.029Z,101060.78
2019-03-03T20:22:44.933Z,100962.56
2019-03-03T20:25:15.783Z,100968.41
2019-03-03T20:27:46.739Z,100961.14
2019-03-03T20:30:22.217Z,100965.53
2019-03-03T20:32:52.626Z,100962.22
2019-03-03T20:35:23.501Z,100958.06
2019-03-03T20:37:54.561Z,100964.24
2019-03-03T20:40:28.996Z,100963.30
2019-03-03T20:42:59.853Z,100956.38
2019-03-03T20:45:31.499Z,100952.03
2019-03-03T20:48:01.960Z,100959.20
2019-03-03T20:50:31.721Z,100960.50
2019-03-03T20:53:02.646Z,100945.64
2019-03-03T20:55:33.708Z,100950.57
2019-03-03T20:58:04.170Z,100950.31
2019-03-03T21:00:35.492Z,100948.84
2019-03-03T21:03:05.885Z,100953.02
2019-03-03T21:05:36.621Z,100953.58
2019-03-03T21:08:07.292Z,100950.78
2019-03-03T21:10:38.144Z,100950.86
2019-03-03T21:13:09.001Z,100948.06
2019-03-03T21:15:39.757Z,100943.03
2019-03-03T21:18:10.405Z,100943.03
2019-03-03T21:20:41.175Z,100942.73
2019-03-03T21:23:12.832Z,100941.92
2019-03-03T21:25:43.691Z,100944.49
2019-03-03T21:28:14.443Z,100942.72
2019-03-03T21:30:45.507Z,100944.93
2019-03-03T21:33:16.361Z,100942.06
2019-03-03T21:35:47.008Z,100932.91
2019-03-03T21:38:17.764Z,100937.28
2019-03-03T21:40:48.620Z,100928.45
2019-03-03T21:43:20.956Z,100932.06
2019-03-03T21:45:51.647Z,100931.31
2019-03-03T21:48:21.520Z,100929.81
2019-03-03T21:50:52.031Z,100933.08
2019-03-03T21:53:22.924Z,100930.17
2019-03-03T21:55:52.657Z,100927.23
2019-03-03T21:58:23.186Z,100922.23
2019-03-03T22:00:53.936Z,100925.55
2019-03-03T22:03:24.576Z,100920.54
2019-03-03T22:05:55.444Z,100915.69
2019-03-03T22:08:26.243Z,100922.08
2019-03-03T22:10:56.935Z,100909.48
2019-03-03T22:13:27.013Z,100910.25
2019-03-03T22:15:57.542Z,100916.64
2019-03-03T22:18:28.192Z,100913.84
2019-03-03T22:20:59.047Z,100909.58
2019-03-03T22:23:30.810Z,100907.55
2019-03-03T22:26:01.681Z,100899.76
2019-03-03T22:28:32.434Z,100893.06
2019-03-03T22:31:03.085Z,100890.13
2019-03-03T22:33:33.942Z,100883.55
2019-03-03T22:36:04.678Z,100881.30
2019-03-03T22:38:35.332Z,100879.06
2019-03-03T22:41:05.296Z,100877.74
2019-03-03T22:43:35.833Z,100874.69
2019-03-03T22:46:06.483Z,100866.86
2019-03-03T22:48:37.217Z,100865.02
2019-03-03T22:51:08.091Z,100861.19
2019-03-03T22:53:38.844Z,100865.30
2019-03-03T22:56:09.499Z,100867.03
2019-03-03T22:58:40.355Z,100870.41
2019-03-03T23:01:14.379Z,100865.65
2019-03-03T23:03:56.775Z,100865.77
2019-03-03T23:06:33.686Z,100874.70
2019-03-03T23:09:13.335Z,100870.09
2019-03-03T23:12:06.841Z,100874.98
2019-03-03T23:14:43.379Z,100872.50
2019-03-03T23:17:29.148Z,100862.31
2019-03-03T23:20:18.023Z,100865.09
2019-03-03T23:23:08.106Z,100852.52
2019-03-03T23:25:52.333Z,100853.30
2019-03-03T23:28:23.095Z,100847.00
2019-03-03T23:30:53.853Z,100846.35
2019-03-03T23:33:24.607Z,100849.25
2019-03-03T23:35:55.158Z,100850.48
2019-03-03T23:38:26.028Z,100855.16
2019-03-03T23:40:56.884Z,100846.41
2019-03-03T23:43:27.635Z,100845.52
2019-03-03T23:45:58.273Z,100835.42
2019-03-03T23:48:29.146Z,100830.58
2019-03-03T23:50:59.901Z,100829.09
2019-03-03T23:53:30.653Z,100824.19
2019-03-03T23:56:01.305Z,100823.52
2019-03-03T23:58:32.160Z,100818.05
